Time;durP1;ratioP1;P1;durP2;ratioP2;P2;SDS_P1;SDS_P2;PMS_P1;PMS_P2;Temp;Humidity;BMP_temperature;BMP_pressure;BME280_temperature;BME280_humidity;BME280_pressure;Samples;Min_cycle;Max_cycle;Signal;HPM_P1;HPM_P2
2021/08/30 00:00:19;;;;;;;3.92;1.27;;;;;;;;;;4963020;28;20066;-62
2021/08/30 00:02:47;;;;;;;1.42;0.98;;;;;;;;;;4966093;28;20493;-62
2021/08/30 00:05:16;;;;;;;2.08;1.40;;;;;;;;;;4963136;28;20072;-63
2021/08/30 00:07:44;;;;;;;2.63;1.20;;;;;;;;;;4969072;28;20049;-63
2021/08/30 00:10:12;;;;;;;2.20;1.23;;;;;;;;;;4968343;28;20498;-62
2021/08/30 00:12:42;;;;;;;1.65;1.05;;;;;;;;;;4970550;28;20051;-63
2021/08/30 00:15:12;;;;;;;2.20;1.20;;;;;;;;;;4966402;28;20051;-64
2021/08/30 00:17:41;;;;;;;1.88;1.17;;;;;;;;;;4967519;28;20050;-63
2021/08/30 00:20:10;;;;;;;2.47;1.30;;;;;;;;;;4966379;28;20444;-62
2021/08/30 00:22:39;;;;;;;1.40;1.00;;;;;;;;;;4965257;28;20134;-62
2021/08/30 00:25:07;;;;;;;1.73;1.00;;;;;;;;;;4964973;28;20061;-63
2021/08/30 00:27:35;;;;;;;3.63;1.30;;;;;;;;;;4970101;28;20059;-62
2021/08/30 00:30:04;;;;;;;1.02;0.93;;;;;;;;;;4968883;28;20053;-63
2021/08/30 00:32:33;;;;;;;3.22;1.48;;;;;;;;;;4969718;28;20133;-62
2021/08/30 00:35:02;;;;;;;2.33;1.30;;;;;;;;;;4965834;28;20047;-62
2021/08/30 00:37:30;;;;;;;2.55;1.08;;;;;;;;;;4968920;28;20055;-62
2021/08/30 00:39:59;;;;;;;1.75;1.10;;;;;;;;;;4966086;28;20137;-64
2021/08/30 00:42:27;;;;;;;2.90;1.40;;;;;;;;;;4965455;28;20153;-63
2021/08/30 00:44:56;;;;;;;2.15;1.13;;;;;;;;;;4968767;28;20054;-63
2021/08/30 00:47:24;;;;;;;1.88;1.20;;;;;;;;;;4966436;28;20109;-63
2021/08/30 00:49:53;;;;;;;2.08;1.38;;;;;;;;;;4971253;28;20105;-62
2021/08/30 00:52:22;;;;;;;1.85;1.10;;;;;;;;;;4974993;28;20129;-64
2021/08/30 00:54:50;;;;;;;2.38;1.50;;;;;;;;;;4972281;28;20344;-63
2021/08/30 00:57:18;;;;;;;2.80;1.40;;;;;;;;;;4973938;28;20149;-63
2021/08/30 00:59:47;;;;;;;2.38;1.42;;;;;;;;;;4971141;28;20049;-63
2021/08/30 01:02:15;;;;;;;1.75;1.20;;;;;;;;;;4971210;28;20058;-63
2021/08/30 01:04:44;;;;;;;2.30;1.10;;;;;;;;;;4985494;23;20503;-75
2021/08/30 01:07:18;;;;;;;1.90;1.20;;;;;;;;;;4972022;28;20062;-75
2021/08/30 01:09:49;;;;;;;2.45;1.27;;;;;;;;;;4976700;28;20398;-75
2021/08/30 01:12:18;;;;;;;3.70;1.40;;;;;;;;;;4973965;28;20153;-75
2021/08/30 01:14:55;;;;;;;2.28;1.50;;;;;;;;;;4973191;28;20121;-77
2021/08/30 01:17:24;;;;;;;1.63;1.17;;;;;;;;;;4971381;28;20046;-77
2021/08/30 01:19:55;;;;;;;2.00;1.33;;;;;;;;;;4975951;28;20053;-75
2021/08/30 01:22:26;;;;;;;1.92;1.20;;;;;;;;;;4971703;28;20053;-76
2021/08/30 01:24:55;;;;;;;2.00;1.15;;;;;;;;;;4974298;28;20480;-77
2021/08/30 01:27:24;;;;;;;1.55;1.23;;;;;;;;;;4968546;28;20388;-78
2021/08/30 01:29:54;;;;;;;2.17;1.27;;;;;;;;;;4973746;28;20054;-76
2021/08/30 01:32:30;;;;;;;1.80;1.00;;;;;;;;;;4974724;28;20486;-76
2021/08/30 01:34:59;;;;;;;2.70;1.10;;;;;;;;;;4970283;28;20057;-75
2021/08/30 01:37:28;;;;;;;2.13;1.20;;;;;;;;;;4969373;28;20062;-75
2021/08/30 01:39:56;;;;;;;1.52;0.85;;;;;;;;;;4962896;28;20177;-76
2021/08/30 01:42:25;;;;;;;1.25;0.85;;;;;;;;;;4965037;28;20057;-76
2021/08/30 01:44:54;;;;;;;2.08;1.10;;;;;;;;;;4975473;28;20057;-75
2021/08/30 01:47:23;;;;;;;1.75;0.95;;;;;;;;;;4970176;28;20061;-75
2021/08/30 01:50:00;;;;;;;1.55;0.88;;;;;;;;;;4969514;28;20047;-75
2021/08/30 01:52:30;;;;;;;1.00;0.85;;;;;;;;;;4968171;28;20051;-76
2021/08/30 01:55:02;;;;;;;1.60;1.10;;;;;;;;;;4975315;28;20280;-80
2021/08/30 01:57:39;;;;;;;1.95;1.20;;;;;;;;;;4974329;28;20573;-76
2021/08/30 02:02:54;;;;;;;1.88;1.00;;;;;;;;;;4968164;28;20126;-77
2021/08/30 02:05:25;;;;;;;3.65;1.20;;;;;;;;;;4954245;29;20138;-76
2021/08/30 02:07:53;;;;;;;2.03;1.20;;;;;;;;;;4954401;29;20141;-75
2021/08/30 02:10:22;;;;;;;1.60;1.05;;;;;;;;;;4956383;29;20083;-79
2021/08/30 02:12:51;;;;;;;1.70;1.27;;;;;;;;;;4952675;29;20122;-76
2021/08/30 02:15:20;;;;;;;1.67;1.23;;;;;;;;;;4953502;28;20098;-75
2021/08/30 02:17:50;;;;;;;2.13;1.20;;;;;;;;;;4955462;29;20134;-77
2021/08/30 02:20:23;;;;;;;2.95;1.30;;;;;;;;;;4955052;29;20047;-76
2021/08/30 02:22:53;;;;;;;1.38;1.02;;;;;;;;;;4953043;29;20051;-75
2021/08/30 02:25:23;;;;;;;1.85;1.13;;;;;;;;;;4954097;29;20059;-76
2021/08/30 02:27:54;;;;;;;1.63;1.20;;;;;;;;;;4953248;29;20039;-76
2021/08/30 02:30:24;;;;;;;2.17;1.15;;;;;;;;;;4952672;29;20043;-76
2021/08/30 02:32:53;;;;;;;2.10;0.90;;;;;;;;;;4953891;29;20047;-76
2021/08/30 02:35:23;;;;;;;2.50;1.13;;;;;;;;;;4953505;28;20169;-75
2021/08/30 02:37:54;;;;;;;2.10;1.10;;;;;;;;;;4954341;29;20049;-74
2021/08/30 02:40:23;;;;;;;2.92;1.48;;;;;;;;;;4955692;29;20047;-75
2021/08/30 02:42:52;;;;;;;2.15;1.25;;;;;;;;;;4954495;29;20146;-74
2021/08/30 02:45:21;;;;;;;2.20;1.40;;;;;;;;;;4954224;28;20058;-76
2021/08/30 02:47:49;;;;;;;2.33;1.20;;;;;;;;;;4949829;29;20089;-79
2021/08/30 02:50:18;;;;;;;3.33;1.38;;;;;;;;;;4946835;29;20135;-75
2021/08/30 02:52:47;;;;;;;2.35;1.05;;;;;;;;;;4949720;29;20504;-75
2021/08/30 02:55:17;;;;;;;1.85;1.00;;;;;;;;;;4953993;28;20088;-76
2021/08/30 02:57:48;;;;;;;3.70;1.70;;;;;;;;;;4954202;29;20073;-75
2021/08/30 03:00:17;;;;;;;3.65;1.42;;;;;;;;;;4951735;29;20055;-78
2021/08/30 03:02:46;;;;;;;1.77;1.02;;;;;;;;;;4951576;28;20043;-76
2021/08/30 03:05:15;;;;;;;2.08;1.20;;;;;;;;;;4954266;28;20059;-73
2021/08/30 03:07:43;;;;;;;2.95;1.17;;;;;;;;;;4953410;29;20047;-74
2021/08/30 03:10:11;;;;;;;2.20;1.00;;;;;;;;;;4954136;28;20051;-75
2021/08/30 03:12:42;;;;;;;2.60;1.45;;;;;;;;;;4952106;29;20061;-78
2021/08/30 03:15:13;;;;;;;1.60;1.13;;;;;;;;;;4953689;29;20066;-76
2021/08/30 03:17:45;;;;;;;6.22;1.50;;;;;;;;;;4944326;29;20421;-77
2021/08/30 03:20:17;;;;;;;2.22;1.55;;;;;;;;;;4951394;29;20061;-77
2021/08/30 03:22:46;;;;;;;1.77;1.30;;;;;;;;;;4954518;29;20134;-76
2021/08/30 03:25:15;;;;;;;2.88;1.30;;;;;;;;;;4952619;29;20094;-75
2021/08/30 03:27:58;;;;;;;2.65;1.15;;;;;;;;;;3093050;28;10002166;-76
2021/08/30 03:30:27;;;;;;;1.63;1.10;;;;;;;;;;2904006;29;10001799;-75
2021/08/30 03:32:56;;;;;;;2.20;1.45;;;;;;;;;;4953407;29;20055;-75
2021/08/30 03:35:26;;;;;;;1.70;1.25;;;;;;;;;;4954408;29;20475;-75
2021/08/30 03:37:56;;;;;;;3.50;1.45;;;;;;;;;;4952043;29;20598;-76
2021/08/30 03:40:25;;;;;;;1.70;1.30;;;;;;;;;;4954932;29;20143;-76
2021/08/30 03:42:53;;;;;;;2.35;1.38;;;;;;;;;;4955396;29;20134;-76
2021/08/30 03:45:26;;;;;;;2.83;1.40;;;;;;;;;;4955339;28;20110;-77
2021/08/30 03:47:55;;;;;;;4.03;1.38;;;;;;;;;;4953756;29;20047;-77
2021/08/30 03:50:24;;;;;;;3.22;1.40;;;;;;;;;;4943187;29;20097;-77
2021/08/30 03:52:53;;;;;;;3.63;1.65;;;;;;;;;;4950309;29;20047;-76
2021/08/30 03:55:21;;;;;;;2.40;1.38;;;;;;;;;;4943552;28;20440;-78
2021/08/30 03:57:52;;;;;;;4.22;1.65;;;;;;;;;;4952420;28;20051;-76
2021/08/30 04:00:21;;;;;;;5.38;1.60;;;;;;;;;;4950010;29;20073;-83
2021/08/30 04:02:51;;;;;;;4.78;1.40;;;;;;;;;;4946835;28;20145;-77
2021/08/30 04:05:23;;;;;;;3.42;1.70;;;;;;;;;;4955586;29;20055;-76
2021/08/30 04:07:51;;;;;;;2.08;1.48;;;;;;;;;;4955530;29;20043;-76
2021/08/30 04:10:20;;;;;;;2.08;1.40;;;;;;;;;;4952684;29;20407;-77
2021/08/30 04:12:49;;;;;;;3.15;1.40;;;;;;;;;;4952480;29;20075;-76
2021/08/30 04:15:17;;;;;;;3.78;1.50;;;;;;;;;;4951401;28;20071;-76
2021/08/30 04:17:47;;;;;;;2.20;1.17;;;;;;;;;;4951883;29;20051;-79
2021/08/30 04:20:17;;;;;;;2.45;1.33;;;;;;;;;;4953806;29;20062;-76
2021/08/30 04:22:45;;;;;;;3.70;1.50;;;;;;;;;;4957560;28;20142;-78
2021/08/30 04:25:13;;;;;;;2.80;1.23;;;;;;;;;;4957756;28;20183;-77
2021/08/30 04:27:42;;;;;;;2.08;1.17;;;;;;;;;;4958143;29;20054;-77
2021/08/30 04:30:10;;;;;;;2.67;1.42;;;;;;;;;;4951166;28;20126;-77
2021/08/30 04:32:40;;;;;;;1.58;1.00;;;;;;;;;;4957194;28;20084;-79
2021/08/30 04:35:09;;;;;;;2.97;1.20;;;;;;;;;;4954833;29;20047;-81
2021/08/30 04:37:38;;;;;;;1.65;1.08;;;;;;;;;;4955659;29;20051;-76
2021/08/30 04:40:07;;;;;;;3.08;1.30;;;;;;;;;;4952768;29;20575;-79
2021/08/30 04:42:36;;;;;;;1.83;0.98;;;;;;;;;;4956378;29;20048;-77
2021/08/30 04:45:04;;;;;;;1.73;1.00;;;;;;;;;;4954689;28;20047;-77
2021/08/30 04:47:33;;;;;;;2.00;1.10;;;;;;;;;;4955664;29;20066;-75
2021/08/30 04:50:02;;;;;;;2.38;0.93;;;;;;;;;;4956562;29;20087;-79
2021/08/30 04:52:30;;;;;;;2.58;1.08;;;;;;;;;;4956367;29;20511;-76
2021/08/30 04:54:59;;;;;;;1.58;1.25;;;;;;;;;;4954304;29;20043;-80
2021/08/30 04:57:28;;;;;;;2.22;1.00;;;;;;;;;;4946469;28;20047;-78
2021/08/30 04:59:56;;;;;;;2.30;0.93;;;;;;;;;;4951562;28;20083;-77
2021/08/30 05:02:27;;;;;;;2.35;1.40;;;;;;;;;;4955446;28;20506;-77
2021/08/30 05:04:58;;;;;;;1.60;1.02;;;;;;;;;;4956006;28;20130;-77
2021/08/30 05:07:26;;;;;;;1.75;1.00;;;;;;;;;;4956070;29;20063;-77
2021/08/30 05:09:54;;;;;;;3.53;1.30;;;;;;;;;;4955131;29;20065;-79
2021/08/30 05:12:26;;;;;;;1.45;1.05;;;;;;;;;;4955794;29;20081;-79
2021/08/30 05:14:55;;;;;;;1.55;1.00;;;;;;;;;;4950861;28;20079;-78
2021/08/30 05:17:23;;;;;;;2.50;1.17;;;;;;;;;;4951336;29;20057;-78
2021/08/30 05:19:54;;;;;;;1.60;1.02;;;;;;;;;;4954330;29;20145;-78
2021/08/30 05:22:24;;;;;;;2.13;1.20;;;;;;;;;;4951880;29;20044;-78
2021/08/30 05:24:52;;;;;;;3.65;1.63;;;;;;;;;;4946189;28;20060;-78
2021/08/30 05:27:20;;;;;;;3.15;1.13;;;;;;;;;;4948646;29;20058;-77
2021/08/30 05:29:50;;;;;;;3.35;1.05;;;;;;;;;;4952489;29;20054;-78
2021/08/30 05:32:18;;;;;;;2.30;1.25;;;;;;;;;;4950397;29;20047;-80
2021/08/30 05:34:46;;;;;;;1.65;0.85;;;;;;;;;;4941524;29;20450;-75
2021/08/30 05:37:14;;;;;;;1.30;1.10;;;;;;;;;;4953389;29;20130;-78
2021/08/30 05:39:43;;;;;;;2.88;1.08;;;;;;;;;;4954275;29;20457;-75
2021/08/30 05:42:11;;;;;;;2.20;1.38;;;;;;;;;;4951837;29;20047;-76
2021/08/30 05:44:39;;;;;;;3.13;1.00;;;;;;;;;;4953007;29;20485;-78
2021/08/30 05:47:09;;;;;;;2.22;1.08;;;;;;;;;;4953041;29;20134;-76
2021/08/30 05:49:38;;;;;;;1.50;1.08;;;;;;;;;;4953746;29;20130;-81
2021/08/30 05:52:06;;;;;;;2.55;1.25;;;;;;;;;;4951168;29;20065;-76
2021/08/30 05:54:34;;;;;;;2.92;1.35;;;;;;;;;;4952648;29;20385;-76
2021/08/30 05:57:03;;;;;;;1.23;0.90;;;;;;;;;;4935140;29;20047;-80
2021/08/30 05:59:31;;;;;;;1.63;0.85;;;;;;;;;;4952112;29;20046;-77
2021/08/30 06:01:59;;;;;;;1.67;0.80;;;;;;;;;;4952189;29;20151;-79
2021/08/30 06:04:29;;;;;;;1.90;0.85;;;;;;;;;;4952980;28;20047;-75
2021/08/30 06:06:58;;;;;;;3.60;0.80;;;;;;;;;;4952761;29;20079;-78
2021/08/30 06:09:26;;;;;;;2.40;1.20;;;;;;;;;;4951305;28;20051;-81
2021/08/30 06:11:54;;;;;;;1.10;0.80;;;;;;;;;;4948464;28;20071;-78
2021/08/30 06:14:23;;;;;;;1.50;0.90;;;;;;;;;;4962204;28;20070;-80
2021/08/30 06:16:51;;;;;;;1.33;0.90;;;;;;;;;;4953374;29;20055;-77
2021/08/30 06:19:19;;;;;;;1.23;0.77;;;;;;;;;;4947154;29;20166;-73
2021/08/30 06:21:49;;;;;;;1.23;0.70;;;;;;;;;;4951844;29;20056;-74
2021/08/30 06:24:17;;;;;;;1.52;0.90;;;;;;;;;;4952341;29;20134;-72
2021/08/30 06:26:45;;;;;;;1.48;0.77;;;;;;;;;;4951991;29;20479;-74
2021/08/30 06:29:14;;;;;;;2.17;0.85;;;;;;;;;;4953376;29;20086;-74
2021/08/30 06:31:42;;;;;;;0.90;0.60;;;;;;;;;;4948799;28;20043;-73
2021/08/30 06:34:11;;;;;;;1.25;0.65;;;;;;;;;;4951322;28;20073;-73
2021/08/30 06:36:39;;;;;;;2.47;0.82;;;;;;;;;;4947220;28;20047;-76
2021/08/30 06:39:08;;;;;;;1.48;0.70;;;;;;;;;;4950758;29;20138;-74
2021/08/30 06:41:37;;;;;;;1.42;0.70;;;;;;;;;;4950189;29;20054;-78
2021/08/30 06:44:05;;;;;;;0.98;0.60;;;;;;;;;;4949225;28;20051;-76
2021/08/30 06:46:34;;;;;;;1.10;0.60;;;;;;;;;;4951038;29;20511;-74
2021/08/30 06:49:02;;;;;;;1.25;0.57;;;;;;;;;;4952498;29;20444;-75
2021/08/30 06:51:30;;;;;;;1.10;0.65;;;;;;;;;;4934081;29;20051;-75
2021/08/30 06:53:59;;;;;;;3.13;0.80;;;;;;;;;;4951700;28;20519;-76
2021/08/30 06:56:29;;;;;;;1.13;0.50;;;;;;;;;;4951046;29;20043;-75
2021/08/30 06:58:57;;;;;;;2.33;0.57;;;;;;;;;;4952115;29;20051;-75
2021/08/30 07:01:25;;;;;;;0.88;0.60;;;;;;;;;;4951799;29;20055;-75
2021/08/30 07:03:54;;;;;;;0.73;0.60;;;;;;;;;;4950673;28;20054;-76
2021/08/30 07:06:23;;;;;;;0.60;0.43;;;;;;;;;;4950774;29;20150;-77
2021/08/30 07:08:52;;;;;;;0.50;0.45;;;;;;;;;;4953394;29;20118;-75
2021/08/30 07:11:20;;;;;;;0.70;0.60;;;;;;;;;;4938241;29;20106;-74
2021/08/30 07:13:50;;;;;;;0.75;0.40;;;;;;;;;;4951653;28;20055;-74
2021/08/30 07:16:19;;;;;;;1.20;0.40;;;;;;;;;;4951354;29;20051;-80
2021/08/30 07:18:47;;;;;;;0.57;0.40;;;;;;;;;;4949909;29;20047;-76
2021/08/30 07:21:16;;;;;;;0.75;0.57;;;;;;;;;;4950982;29;20047;-74
2021/08/30 07:23:45;;;;;;;0.45;0.30;;;;;;;;;;4950574;29;20396;-67
2021/08/30 07:26:13;;;;;;;0.38;0.38;;;;;;;;;;4951787;29;20054;-67
2021/08/30 07:28:42;;;;;;;0.80;0.50;;;;;;;;;;4948739;29;20044;-68
2021/08/30 07:31:11;;;;;;;0.40;0.40;;;;;;;;;;4944575;29;20515;-67
2021/08/30 07:33:40;;;;;;;0.52;0.47;;;;;;;;;;4948266;29;20040;-68
2021/08/30 07:36:08;;;;;;;0.50;0.43;;;;;;;;;;4948700;29;20147;-68
2021/08/30 07:38:37;;;;;;;0.60;0.50;;;;;;;;;;4944928;28;20139;-67
2021/08/30 07:41:05;;;;;;;2.90;0.45;;;;;;;;;;4953324;28;20713;-68
2021/08/30 07:43:33;;;;;;;0.50;0.40;;;;;;;;;;4946801;28;20133;-69
2021/08/30 07:46:02;;;;;;;0.80;0.52;;;;;;;;;;4954569;28;20562;-69
2021/08/30 07:48:32;;;;;;;0.43;0.40;;;;;;;;;;4948699;28;20094;-67
2021/08/30 07:51:01;;;;;;;0.55;0.52;;;;;;;;;;4956007;28;20058;-68
2021/08/30 07:53:30;;;;;;;0.50;0.50;;;;;;;;;;4946372;28;20531;-69
2021/08/30 07:55:59;;;;;;;0.50;0.40;;;;;;;;;;4954242;28;20145;-68
2021/08/30 07:58:28;;;;;;;0.90;0.68;;;;;;;;;;4951711;28;20146;-69
2021/08/30 08:00:57;;;;;;;1.27;0.50;;;;;;;;;;4952586;28;20058;-68
2021/08/30 08:03:26;;;;;;;1.52;0.70;;;;;;;;;;4951076;28;20656;-69
2021/08/30 08:05:57;;;;;;;1.73;0.80;;;;;;;;;;4955900;28;20435;-68
2021/08/30 08:08:25;;;;;;;1.45;0.82;;;;;;;;;;4959735;28;20494;-69
2021/08/30 08:10:55;;;;;;;1.15;0.73;;;;;;;;;;4963122;28;20054;-68
2021/08/30 08:13:23;;;;;;;1.38;0.75;;;;;;;;;;4949104;28;20074;-69
2021/08/30 08:15:52;;;;;;;3.70;1.52;;;;;;;;;;4963511;28;20047;-68
2021/08/30 08:18:20;;;;;;;1.70;1.38;;;;;;;;;;4958694;28;20055;-69
2021/08/30 08:20:49;;;;;;;1.58;0.90;;;;;;;;;;4961999;28;20170;-69
2021/08/30 08:23:19;;;;;;;1.85;1.30;;;;;;;;;;4946810;28;20059;-69
2021/08/30 08:25:47;;;;;;;1.77;1.20;;;;;;;;;;4949586;28;20134;-68
2021/08/30 08:28:16;;;;;;;1.88;1.67;;;;;;;;;;4949083;28;20059;-68
2021/08/30 08:30:45;;;;;;;3.00;2.10;;;;;;;;;;4955979;28;20136;-68
2021/08/30 08:33:13;;;;;;;5.30;2.13;;;;;;;;;;4946481;28;20053;-67
2021/08/30 08:35:42;;;;;;;3.10;1.60;;;;;;;;;;4953178;28;20086;-67
2021/08/30 08:38:11;;;;;;;3.88;1.92;;;;;;;;;;4945445;28;20114;-67
2021/08/30 08:40:41;;;;;;;2.15;1.50;;;;;;;;;;4946402;28;20047;-68
2021/08/30 08:43:12;;;;;;;1.83;1.42;;;;;;;;;;4947128;28;20492;-70
2021/08/30 08:45:42;;;;;;;1.75;1.40;;;;;;;;;;4959836;28;20479;-67
2021/08/30 08:48:11;;;;;;;1.83;1.67;;;;;;;;;;4951261;28;20053;-68
2021/08/30 08:50:39;;;;;;;1.35;1.10;;;;;;;;;;4959965;28;20051;-68
2021/08/30 08:53:08;;;;;;;1.63;1.05;;;;;;;;;;4952092;28;20051;-68
2021/08/30 08:55:38;;;;;;;2.15;1.27;;;;;;;;;;4952030;28;20137;-68
2021/08/30 08:58:11;;;;;;;1.20;1.10;;;;;;;;;;4953821;28;20447;-71
2021/08/30 09:00:41;;;;;;;1.48;0.90;;;;;;;;;;4951053;28;20058;-69
2021/08/30 09:03:17;;;;;;;1.10;1.00;;;;;;;;;;4946765;28;20408;-70
2021/08/30 09:05:46;;;;;;;1.33;0.88;;;;;;;;;;4943576;28;20047;-69
2021/08/30 09:08:29;;;;;;;1.60;1.05;;;;;;;;;;4956169;28;20122;-67
2021/08/30 09:10:57;;;;;;;2.58;1.00;;;;;;;;;;4948738;28;20126;-69
2021/08/30 09:13:31;;;;;;;1.35;0.88;;;;;;;;;;4954129;28;20101;-70
2021/08/30 09:16:00;;;;;;;1.50;0.88;;;;;;;;;;4940723;28;20096;-69
2021/08/30 09:18:30;;;;;;;2.28;0.90;;;;;;;;;;4951918;28;20047;-68
2021/08/30 09:20:59;;;;;;;1.48;0.95;;;;;;;;;;4962163;28;20047;-69
2021/08/30 09:23:29;;;;;;;3.15;0.77;;;;;;;;;;4950556;28;20076;-69
2021/08/30 09:26:01;;;;;;;1.10;0.77;;;;;;;;;;4956564;28;20042;-69
2021/08/30 09:28:33;;;;;;;1.88;0.93;;;;;;;;;;4951263;28;20055;-69
2021/08/30 09:31:03;;;;;;;1.15;0.80;;;;;;;;;;4948989;28;20055;-69
2021/08/30 09:33:32;;;;;;;1.70;0.70;;;;;;;;;;4947149;28;20082;-68
2021/08/30 09:36:02;;;;;;;1.08;0.60;;;;;;;;;;4958647;28;20047;-69
2021/08/30 09:38:37;;;;;;;1.05;0.80;;;;;;;;;;4953155;28;20091;-68
2021/08/30 09:41:06;;;;;;;1.27;0.80;;;;;;;;;;4959467;28;20062;-70
2021/08/30 09:43:36;;;;;;;1.33;0.82;;;;;;;;;;4953184;28;20059;-70
2021/08/30 09:46:07;;;;;;;1.50;0.90;;;;;;;;;;4958787;28;20051;-70
2021/08/30 09:48:36;;;;;;;1.42;0.70;;;;;;;;;;4948540;28;20489;-70
2021/08/30 09:51:06;;;;;;;0.50;0.50;;;;;;;;;;4954107;28;20066;-69
2021/08/30 09:53:35;;;;;;;1.38;1.00;;;;;;;;;;4955018;28;20055;-71
2021/08/30 09:56:04;;;;;;;2.90;0.93;;;;;;;;;;4953645;28;20046;-68
2021/08/30 09:58:32;;;;;;;1.48;0.70;;;;;;;;;;4950438;28;20493;-67
2021/08/30 10:01:03;;;;;;;1.27;0.63;;;;;;;;;;4949608;28;20169;-68
2021/08/30 10:03:39;;;;;;;1.13;0.80;;;;;;;;;;4952554;28;20055;-67
2021/08/30 10:06:08;;;;;;;3.30;1.20;;;;;;;;;;4940955;28;20047;-68
2021/08/30 10:08:38;;;;;;;1.50;0.88;;;;;;;;;;4950541;28;20067;-70
2021/08/30 10:11:06;;;;;;;1.35;0.80;;;;;;;;;;4954318;28;20071;-71
2021/08/30 10:13:35;;;;;;;2.50;0.75;;;;;;;;;;4946530;28;20086;-70
2021/08/30 10:16:05;;;;;;;2.20;0.80;;;;;;;;;;4960922;28;20055;-71
2021/08/30 10:18:34;;;;;;;0.95;0.80;;;;;;;;;;4954780;28;20122;-70
2021/08/30 10:21:13;;;;;;;1.55;1.05;;;;;;;;;;4955971;28;20556;-71
2021/08/30 10:23:41;;;;;;;1.27;1.00;;;;;;;;;;4959710;28;20055;-70
2021/08/30 10:26:12;;;;;;;2.05;0.70;;;;;;;;;;4964992;28;20130;-70
2021/08/30 10:28:41;;;;;;;1.52;0.75;;;;;;;;;;4944301;28;20055;-70
2021/08/30 10:31:19;;;;;;;1.30;0.90;;;;;;;;;;4947049;28;20106;-70
2021/08/30 10:33:49;;;;;;;1.80;1.08;;;;;;;;;;4953779;28;20051;-70
2021/08/30 10:36:19;;;;;;;2.15;0.77;;;;;;;;;;4940837;28;20042;-70
2021/08/30 10:39:02;;;;;;;1.85;1.30;;;;;;;;;;4959767;28;20499;-71
2021/08/30 10:41:32;;;;;;;1.63;0.80;;;;;;;;;;4949797;28;20113;-70
2021/08/30 10:44:07;;;;;;;1.55;0.60;;;;;;;;;;4952156;28;20380;-70
2021/08/30 10:46:42;;;;;;;1.45;0.70;;;;;;;;;;4955546;28;20094;-70
2021/08/30 10:49:11;;;;;;;2.53;0.57;;;;;;;;;;4947852;28;20051;-71
2021/08/30 10:51:40;;;;;;;0.60;0.50;;;;;;;;;;4957725;28;20488;-70
2021/08/30 10:54:10;;;;;;;1.35;0.50;;;;;;;;;;4959331;28;20051;-69
2021/08/30 10:56:38;;;;;;;0.60;0.40;;;;;;;;;;4956999;28;20074;-70
2021/08/30 10:59:09;;;;;;;0.30;0.30;;;;;;;;;;4961166;28;20589;-70
2021/08/30 11:01:39;;;;;;;0.47;0.30;;;;;;;;;;4962695;28;20551;-69
2021/08/30 11:04:12;;;;;;;0.20;0.20;;;;;;;;;;4959311;28;20055;-69
2021/08/30 11:06:40;;;;;;;0.45;0.30;;;;;;;;;;4957331;28;20059;-70
2021/08/30 11:09:17;;;;;;;0.55;0.40;;;;;;;;;;4955513;28;20090;-69
2021/08/30 11:11:45;;;;;;;0.93;0.50;;;;;;;;;;4954003;28;20110;-71
2021/08/30 11:14:20;;;;;;;0.77;0.50;;;;;;;;;;4962697;28;20059;-69
2021/08/30 11:16:54;;;;;;;1.10;0.43;;;;;;;;;;4956238;28;20055;-71
2021/08/30 11:19:27;;;;;;;0.85;0.47;;;;;;;;;;4933226;28;20052;-70
2021/08/30 11:21:58;;;;;;;1.13;0.50;;;;;;;;;;4955819;28;20046;-70
2021/08/30 11:24:27;;;;;;;0.60;0.50;;;;;;;;;;4969215;28;20057;-69
2021/08/30 11:26:56;;;;;;;2.35;0.60;;;;;;;;;;4956336;28;20050;-70
2021/08/30 11:29:25;;;;;;;0.80;0.50;;;;;;;;;;4959840;28;20047;-69
2021/08/30 11:31:53;;;;;;;2.28;0.90;;;;;;;;;;4947095;28;20078;-70
2021/08/30 11:34:25;;;;;;;1.88;0.70;;;;;;;;;;4961606;28;20058;-70
2021/08/30 11:36:55;;;;;;;1.10;0.60;;;;;;;;;;4954234;28;20086;-72
2021/08/30 11:39:24;;;;;;;2.65;0.80;;;;;;;;;;4960889;28;20499;-70
2021/08/30 11:41:55;;;;;;;2.13;0.70;;;;;;;;;;4959923;28;20082;-70
2021/08/30 11:44:23;;;;;;;1.50;1.00;;;;;;;;;;4944609;28;20043;-71
2021/08/30 11:46:54;;;;;;;2.72;0.75;;;;;;;;;;4957650;28;20388;-71
2021/08/30 11:49:24;;;;;;;1.10;0.80;;;;;;;;;;4951217;28;20125;-70
2021/08/30 11:51:54;;;;;;;2.63;1.00;;;;;;;;;;4950460;28;20130;-70
2021/08/30 11:54:28;;;;;;;1.38;0.80;;;;;;;;;;4966757;28;20051;-73
2021/08/30 11:56:58;;;;;;;2.10;1.00;;;;;;;;;;4939515;28;20051;-69
2021/08/30 11:59:27;;;;;;;2.97;1.00;;;;;;;;;;4959537;28;20494;-69
2021/08/30 12:01:55;;;;;;;2.05;0.90;;;;;;;;;;4946745;28;20055;-69
2021/08/30 12:04:27;;;;;;;1.00;0.75;;;;;;;;;;4960400;28;20138;-69
2021/08/30 12:06:57;;;;;;;2.45;0.80;;;;;;;;;;4949227;28;20051;-69
2021/08/30 12:09:25;;;;;;;1.20;0.80;;;;;;;;;;4950975;28;20063;-69
2021/08/30 12:11:54;;;;;;;1.60;0.70;;;;;;;;;;4951612;28;20463;-69
2021/08/30 12:14:24;;;;;;;1.17;0.60;;;;;;;;;;4957859;28;20044;-70
2021/08/30 12:16:58;;;;;;;1.52;0.60;;;;;;;;;;4950959;28;20518;-69
2021/08/30 12:19:28;;;;;;;1.90;0.63;;;;;;;;;;4955552;28;20087;-69
2021/08/30 12:21:57;;;;;;;0.77;0.60;;;;;;;;;;4953570;28;20406;-69
2021/08/30 12:24:25;;;;;;;1.50;0.73;;;;;;;;;;4957115;28;20063;-71
2021/08/30 12:26:54;;;;;;;0.90;0.68;;;;;;;;;;4955486;28;20048;-71
2021/08/30 12:29:23;;;;;;;0.68;0.68;;;;;;;;;;4950494;28;20563;-70
2021/08/30 12:31:52;;;;;;;4.20;1.50;;;;;;;;;;4950071;28;20134;-70
2021/08/30 12:34:23;;;;;;;1.55;0.95;;;;;;;;;;4945361;28;20138;-70
2021/08/30 12:36:53;;;;;;;1.75;1.10;;;;;;;;;;4951676;28;20703;-70
2021/08/30 12:39:21;;;;;;;2.55;1.17;;;;;;;;;;4950246;28;20055;-71
2021/08/30 12:41:50;;;;;;;2.35;1.17;;;;;;;;;;4957182;28;20043;-70
2021/08/30 12:44:18;;;;;;;1.88;1.02;;;;;;;;;;4969609;28;20113;-70
2021/08/30 12:46:47;;;;;;;3.33;1.05;;;;;;;;;;4954730;28;20146;-71
2021/08/30 12:49:16;;;;;;;1.63;1.33;;;;;;;;;;4966124;28;20055;-71
2021/08/30 12:51:44;;;;;;;1.73;1.13;;;;;;;;;;4952853;28;20329;-71
2021/08/30 12:54:14;;;;;;;1.83;1.38;;;;;;;;;;4952466;28;21237;-71
2021/08/30 12:56:43;;;;;;;1.10;1.00;;;;;;;;;;4950052;28;20125;-63
2021/08/30 12:59:12;;;;;;;1.77;1.42;;;;;;;;;;4971977;28;20054;-63
2021/08/30 13:01:41;;;;;;;2.33;1.50;;;;;;;;;;4957454;28;20127;-63
2021/08/30 13:04:09;;;;;;;2.25;1.50;;;;;;;;;;4950366;28;20399;-64
2021/08/30 13:06:38;;;;;;;1.88;1.15;;;;;;;;;;4945878;28;20047;-64
2021/08/30 13:09:06;;;;;;;2.35;1.60;;;;;;;;;;4955453;28;20123;-63
2021/08/30 13:11:41;;;;;;;3.10;1.45;;;;;;;;;;4957379;28;20557;-64
2021/08/30 13:14:09;;;;;;;1.27;0.95;;;;;;;;;;4961812;28;20044;-64
2021/08/30 13:16:39;;;;;;;1.20;0.90;;;;;;;;;;4949550;28;20142;-64
2021/08/30 13:19:08;;;;;;;2.85;1.17;;;;;;;;;;4949092;28;20047;-64
2021/08/30 13:21:36;;;;;;;2.17;1.17;;;;;;;;;;4951019;28;20189;-64
2021/08/30 13:24:05;;;;;;;1.55;1.13;;;;;;;;;;4954439;28;20051;-64
2021/08/30 13:26:33;;;;;;;3.17;1.10;;;;;;;;;;4941709;28;20606;-64
2021/08/30 13:29:03;;;;;;;1.42;1.15;;;;;;;;;;4952144;28;20109;-64
2021/08/30 13:31:32;;;;;;;1.38;1.10;;;;;;;;;;4957859;28;20369;-64
2021/08/30 13:34:00;;;;;;;1.52;1.00;;;;;;;;;;4956122;28;20497;-64
2021/08/30 13:36:29;;;;;;;1.38;1.05;;;;;;;;;;4945861;28;20053;-64
2021/08/30 13:38:57;;;;;;;2.13;1.10;;;;;;;;;;4949050;28;20062;-64
2021/08/30 13:41:26;;;;;;;1.30;1.00;;;;;;;;;;4949036;28;20419;-64
2021/08/30 13:43:54;;;;;;;2.97;1.10;;;;;;;;;;4955893;28;20054;-64
2021/08/30 13:46:24;;;;;;;1.35;0.88;;;;;;;;;;4959905;28;20134;-64
2021/08/30 13:48:53;;;;;;;1.45;0.90;;;;;;;;;;4949129;28;20110;-64
2021/08/30 13:51:22;;;;;;;0.70;0.70;;;;;;;;;;4951037;28;20110;-64
2021/08/30 13:53:51;;;;;;;0.60;0.60;;;;;;;;;;4945029;28;20109;-64
2021/08/30 13:56:19;;;;;;;1.45;0.60;;;;;;;;;;4946723;28;20472;-64
2021/08/30 13:58:47;;;;;;;0.90;0.60;;;;;;;;;;4955920;28;20055;-64
2021/08/30 14:01:16;;;;;;;1.40;0.70;;;;;;;;;;4954804;28;20067;-64
2021/08/30 14:03:46;;;;;;;1.30;0.80;;;;;;;;;;4951232;28;20047;-67
2021/08/30 14:06:15;;;;;;;2.70;0.90;;;;;;;;;;4953988;28;20047;-64
2021/08/30 14:09:00;;;;;;;2.65;0.88;;;;;;;;;;4951860;28;20110;-64
2021/08/30 14:11:29;;;;;;;2.17;1.00;;;;;;;;;;4947760;28;20047;-64
2021/08/30 14:13:58;;;;;;;1.73;0.82;;;;;;;;;;4953284;28;20047;-64
2021/08/30 14:16:46;;;;;;;1.80;0.80;;;;;;;;;;4960716;28;20312;-64
2021/08/30 14:19:17;;;;;;;2.45;0.93;;;;;;;;;;4957118;28;20110;-64
2021/08/30 14:21:45;;;;;;;1.73;0.93;;;;;;;;;;4958459;28;20055;-63
2021/08/30 14:24:13;;;;;;;2.05;0.70;;;;;;;;;;4956207;28;20090;-64
2021/08/30 14:26:42;;;;;;;1.55;0.90;;;;;;;;;;4953757;28;20051;-64
2021/08/30 14:29:10;;;;;;;1.92;0.90;;;;;;;;;;4963461;28;20054;-63
2021/08/30 14:31:39;;;;;;;1.85;0.95;;;;;;;;;;4957226;28;20442;-63
2021/08/30 14:34:07;;;;;;;0.82;0.70;;;;;;;;;;4951754;28;20051;-63
2021/08/30 14:36:37;;;;;;;1.40;0.80;;;;;;;;;;4950438;28;20061;-63
2021/08/30 14:39:07;;;;;;;1.60;0.98;;;;;;;;;;4951303;28;20055;-64
2021/08/30 14:41:36;;;;;;;1.70;1.00;;;;;;;;;;4959552;28;20055;-64
2021/08/30 14:44:05;;;;;;;1.00;0.90;;;;;;;;;;4951189;28;20051;-64
2021/08/30 14:46:33;;;;;;;1.75;0.73;;;;;;;;;;4950953;28;20371;-64
2021/08/30 14:49:02;;;;;;;1.98;0.77;;;;;;;;;;4950796;28;20051;-63
2021/08/30 14:51:30;;;;;;;1.90;0.90;;;;;;;;;;4950230;28;20059;-63
2021/08/30 14:54:01;;;;;;;1.55;0.80;;;;;;;;;;4949282;28;20042;-63
2021/08/30 14:56:29;;;;;;;1.38;0.88;;;;;;;;;;4950740;28;20458;-64
2021/08/30 14:58:58;;;;;;;1.25;0.80;;;;;;;;;;4942041;28;20100;-64